首页
METAR-TAF:

METAR-TAF

机场 :

格拉茨, 奥地利

纬度: 47-00N, 经度: 015-26E, 海拔: 340米

当前天气观测

该预报发布于19分钟前的09:50 UTC
风速5节,风向南转南东
温度 7°C
湿度 87%
气压 1014 hPa
能见度10公里或以上
少量云层高于400英尺
多云层高于1000英尺
多云层高于1400英尺

METAR: LOWG 220950Z 16005KT 9999 FEW004 BKN010 BKN014 07/05 Q1014 NOSIG

时间: 11:09 (10:09 UTC)

预报

该预报发布于4小时和27分钟前的05:42 UTC
预报有效从22日的 06点(UTC)到 23日的 06点(UTC)
风速2节,风向多变
能見度: 6000
散云层高于300英尺
多云层高于600英尺
几率 30% :
短暂存在
从 22日的 06点(UTC)到 22日的 08点(UTC)
能見度: 3000
多云层高于200英尺
轻雾
成为
从 22日的 06点(UTC)到 22日的 08点(UTC)
散云层高于700英尺
多云层高于900英尺
成为
从 22日的 09点(UTC)到 22日的 12点(UTC)
多云层高于1200英尺
短暂存在
从 22日的 11点(UTC)到 22日的 18点(UTC)
散云层高于1200英尺
成为
从 22日的 18点(UTC)到 22日的 20点(UTC)
能見度: 4000
多云层高于400英尺
轻雾
短暂存在
从 22日的 21点(UTC)到 23日的 06点(UTC)
能見度: 0100
层高于100英尺

TAF: LOWG 220542Z 2206/2306 VRB02KT 6000 SCT003 BKN006 TX10/2213Z TN06/2206Z PROB30 TEMPO 2206/2208 3000 BR BKN002 BECMG 2206/2208 SCT007 BKN009 BECMG 2209/2212 BKN012 TEMPO 2211/2218 SCT012 BECMG 2218/2220 4000 BR BKN004 TEMPO 2221/2306 0100 FG VV001

超过4000个机场的气象观测和天气预报(METAR&TAF报告)。

可查询的气象台以黄色和红色小点在地图上表示。

将鼠标移到小点上方,可查看气象台名称。

然后点击查看天气观测和预报。

如需切换地图:点击带黑十字的绿色按钮放大地图;点击带横线的绿色按钮缩小地图;或者点击绿色箭头查看邻近地区的地图。


METAR-TAF: